Ranshaw, Pennsylvania
Current Conditions -  °F | °C
As of 11:53 AM on Tuesday 27 Jan 2015 (Local Time) from KSEG Reporting Station
Clear Clear  
Wind Chill: 17°   Ceiling: Unl
Heat Index: 27°   Visibility: 10mi
Dew Point: 13°   Wind: 12mph
Humidity: 56%   Direction: 350°N
Pressure: 29.84"   Gusts: NA
Location:  40.7855°N, 76.5082°W
Report Text: KSEG 271653Z AUTO 35010KT 10SM CLR M03/M11 A2984 RMK AO2 SLP110 T10281106
Loading
Personal Weather Stations






























Interactive Weather Map New forecast layout! Learn more

10-Day Weather Forecast

Advertisements
Track Severe Weather on mobile